Time;durP1;ratioP1;P1;durP2;ratioP2;P2;SDS_P1;SDS_P2;PMS_P1;PMS_P2;Temp;Humidity;BMP_temperature;BMP_pressure;BME280_temperature;BME280_humidity;BME280_pressure;Samples;Min_cycle;Max_cycle;Signal;HPM_P1;HPM_P2
2022/10/31 00:00:51;;;;;;;13.97;8.50;;;-12.20;99.90;;;;;;5095479;28;20182;-77
2022/10/31 00:03:17;;;;;;;13.00;10.03;;;-10.60;99.90;;;;;;5094511;28;20229;-78
2022/10/31 00:05:45;;;;;;;12.20;8.40;;;-13.00;99.90;;;;;;5095724;28;20186;-73
2022/10/31 00:08:11;;;;;;;11.23;8.50;;;-12.70;99.90;;;;;;5094565;28;20212;-70
2022/10/31 00:10:41;;;;;;;11.27;8.67;;;-14.00;99.90;;;;;;5091124;28;20202;-77
2022/10/31 00:13:08;;;;;;;18.53;9.10;;;-12.80;99.90;;;;;;5082936;28;20218;-77
2022/10/31 00:15:35;;;;;;;10.20;8.60;;;-11.10;99.90;;;;;;5094188;28;20208;-78
2022/10/31 00:18:02;;;;;;;13.30;8.53;;;-12.40;99.90;;;;;;5089007;28;20233;-75
2022/10/31 00:20:28;;;;;;;14.07;9.23;;;-14.40;99.90;;;;;;5084428;28;20205;-78
2022/10/31 00:22:56;;;;;;;14.27;9.33;;;-15.20;99.90;;;;;;5095615;28;20622;-74
2022/10/31 00:25:22;;;;;;;10.73;8.97;;;-13.40;99.90;;;;;;5090570;28;20514;-74
2022/10/31 00:27:48;;;;;;;16.50;9.60;;;-12.60;99.90;;;;;;5093835;28;20240;-74
2022/10/31 00:30:14;;;;;;;27.73;11.53;;;-13.00;99.90;;;;;;5087002;28;20206;-74
2022/10/31 00:32:39;;;;;;;16.33;10.67;;;-15.40;99.90;;;;;;5089815;28;20190;-76
2022/10/31 00:35:05;;;;;;;13.70;9.83;;;-13.80;99.90;;;;;;5085837;28;20178;-72
2022/10/31 00:37:31;;;;;;;14.90;10.20;;;-12.70;99.90;;;;;;5094734;28;20187;-75
2022/10/31 00:39:57;;;;;;;16.40;9.47;;;-13.50;99.90;;;;;;5095525;28;20458;-74
2022/10/31 00:42:22;;;;;;;14.10;9.67;;;-14.50;99.90;;;;;;5089378;28;20243;-78
2022/10/31 00:44:48;;;;;;;13.53;9.73;;;-13.60;99.90;;;;;;5090066;28;20427;-72
2022/10/31 00:47:14;;;;;;;14.13;9.77;;;-11.70;99.90;;;;;;5079400;28;20183;-76
2022/10/31 00:49:40;;;;;;;14.40;9.13;;;-11.40;99.90;;;;;;5097343;28;20257;-70
2022/10/31 00:52:05;;;;;;;11.57;8.73;;;-14.50;99.90;;;;;;5099236;28;20182;-73
2022/10/31 00:54:31;;;;;;;14.70;9.13;;;-14.00;99.90;;;;;;5093505;28;20177;-74
2022/10/31 00:56:57;;;;;;;12.30;9.73;;;-12.30;99.90;;;;;;5092885;28;20265;-71
2022/10/31 00:59:23;;;;;;;15.93;9.93;;;-11.80;99.90;;;;;;5097472;28;20182;-74
2022/10/31 01:01:49;;;;;;;16.00;11.43;;;-13.00;99.90;;;;;;5085895;28;20654;-74
2022/10/31 01:04:15;;;;;;;10.97;9.23;;;-13.30;99.90;;;;;;5094341;28;20332;-69
2022/10/31 01:06:41;;;;;;;13.93;11.43;;;-12.20;99.90;;;;;;5097611;28;20178;-70
2022/10/31 01:09:06;;;;;;;9.43;8.63;;;-16.00;99.90;;;;;;5091504;28;20198;-73
2022/10/31 01:11:32;;;;;;;9.73;8.70;;;-14.40;99.90;;;;;;5091232;28;20187;-77
2022/10/31 01:13:58;;;;;;;19.57;9.57;;;-13.30;99.90;;;;;;5093389;28;20186;-78
2022/10/31 01:16:25;;;;;;;16.90;8.70;;;-13.60;99.90;;;;;;5094157;28;20184;-72
2022/10/31 01:18:51;;;;;;;12.03;8.97;;;-12.40;99.90;;;;;;5086093;28;20480;-73
2022/10/31 01:21:23;;;;;;;10.63;8.30;;;-11.70;99.90;;;;;;5093152;28;20233;-71
2022/10/31 01:23:50;;;;;;;12.67;8.90;;;-12.20;99.90;;;;;;5106861;28;20181;-70
2022/10/31 01:26:19;;;;;;;17.33;9.03;;;-11.90;99.90;;;;;;5089931;28;20193;-71
2022/10/31 01:28:49;;;;;;;16.40;8.43;;;-11.10;99.90;;;;;;5098378;28;20216;-72
2022/10/31 01:31:16;;;;;;;12.67;9.27;;;-12.90;99.90;;;;;;5092830;28;20234;-72
2022/10/31 01:33:42;;;;;;;12.90;8.23;;;-12.40;99.90;;;;;;5094492;28;20188;-73
2022/10/31 01:36:17;;;;;;;14.67;9.57;;;-13.10;99.90;;;;;;5094666;28;20341;-72
2022/10/31 01:38:43;;;;;;;12.47;8.93;;;-12.20;99.90;;;;;;5097866;28;20269;-72
2022/10/31 01:41:12;;;;;;;15.40;8.90;;;-12.90;99.90;;;;;;5089491;28;20259;-74
2022/10/31 01:43:57;;;;;;;14.57;8.77;;;-12.60;99.90;;;;;;5094465;28;20255;-74
2022/10/31 01:46:53;;;;;;;12.27;7.93;;;-13.00;99.90;;;;;;5092595;28;20193;-75
2022/10/31 01:49:41;;;;;;;10.87;9.20;;;-13.30;99.90;;;;;;5093955;28;20177;-73
2022/10/31 01:52:07;;;;;;;11.50;8.60;;;-13.80;99.90;;;;;;5097491;28;20183;-72
2022/10/31 01:54:39;;;;;;;12.00;9.30;;;-14.10;99.90;;;;;;5097820;28;20582;-70
2022/10/31 01:57:07;;;;;;;11.97;9.23;;;-14.30;99.90;;;;;;5096187;28;20253;-72
2022/10/31 01:59:39;;;;;;;11.27;8.93;;;-14.90;99.90;;;;;;5086871;28;20180;-70
2022/10/31 02:02:06;;;;;;;10.90;8.40;;;-15.30;99.90;;;;;;5084993;28;20238;-70
2022/10/31 02:04:32;;;;;;;12.70;8.20;;;-15.80;99.90;;;;;;5089047;28;20171;-73
2022/10/31 02:07:06;;;;;;;12.33;8.03;;;-13.30;99.90;;;;;;5088885;28;20358;-71
2022/10/31 02:09:33;;;;;;;18.87;8.87;;;-12.80;99.90;;;;;;5092510;28;20248;-71
2022/10/31 02:12:00;;;;;;;12.50;8.13;;;-13.40;99.90;;;;;;5096501;28;20494;-79
2022/10/31 02:14:29;;;;;;;16.33;9.00;;;-14.80;99.90;;;;;;5085019;28;20182;-73
2022/10/31 02:16:55;;;;;;;16.80;8.77;;;-16.40;99.90;;;;;;5089744;28;20296;-71
2022/10/31 02:19:46;;;;;;;17.10;9.50;;;-17.20;99.90;;;;;;5092285;28;20179;-70
2022/10/31 02:22:50;;;;;;;9.23;8.27;;;-14.90;99.90;;;;;;5086229;28;20199;-74
2022/10/31 02:25:31;;;;;;;10.73;8.87;;;-16.20;99.90;;;;;;5096599;28;20194;-72
2022/10/31 02:28:05;;;;;;;8.30;7.17;;;-14.00;99.90;;;;;;5106612;27;20190;-69
2022/10/31 02:30:55;;;;;;;9.90;7.97;;;-14.90;99.90;;;;;;5092649;28;20184;-73
2022/10/31 02:33:29;;;;;;;11.07;8.53;;;-14.80;99.90;;;;;;5085992;28;20248;-69
2022/10/31 02:36:00;;;;;;;15.20;9.43;;;-13.50;99.90;;;;;;5090153;28;20536;-68
2022/10/31 02:38:58;;;;;;;16.30;7.97;;;-14.40;99.90;;;;;;5091506;28;20249;-71
2022/10/31 02:41:42;;;;;;;14.70;8.43;;;-13.30;99.90;;;;;;5065420;28;20242;-69
2022/10/31 02:44:17;;;;;;;14.90;9.60;;;-14.70;99.90;;;;;;5093306;28;20187;-72
2022/10/31 02:46:52;;;;;;;12.77;8.57;;;-11.60;99.90;;;;;;5092866;28;20227;-71
2022/10/31 02:49:44;;;;;;;9.60;8.37;;;-12.20;99.90;;;;;;5088235;28;20169;-74
2022/10/31 02:52:31;;;;;;;12.93;9.53;;;-14.10;99.90;;;;;;5085660;28;20251;-69
2022/10/31 02:54:57;;;;;;;14.07;8.37;;;-15.60;99.90;;;;;;5095555;28;20182;-74
2022/10/31 02:57:33;;;;;;;12.50;7.90;;;-16.20;99.90;;;;;;5090464;28;20236;-77
2022/10/31 03:00:09;;;;;;;12.10;8.10;;;-15.40;99.90;;;;;;5086437;28;20197;-72
2022/10/31 03:02:53;;;;;;;8.13;7.43;;;-14.80;99.90;;;;;;5093101;28;20234;-68
2022/10/31 03:05:44;;;;;;;12.33;8.43;;;-13.50;99.90;;;;;;5083023;28;20581;-69
2022/10/31 03:08:31;;;;;;;12.37;8.10;;;-14.30;99.90;;;;;;5085511;28;20574;-69
2022/10/31 03:11:00;;;;;;;13.87;8.23;;;-13.90;99.90;;;;;;5089076;28;20174;-69
2022/10/31 03:13:34;;;;;;;14.97;8.17;;;-14.30;99.90;;;;;;5082856;28;20611;-69
2022/10/31 03:16:10;;;;;;;13.63;8.93;;;-13.00;99.90;;;;;;5095205;28;20179;-69
2022/10/31 03:18:44;;;;;;;11.37;8.47;;;-13.20;99.90;;;;;;5091609;28;20175;-68
2022/10/31 03:21:18;;;;;;;13.07;8.43;;;-12.70;99.90;;;;;;5095157;28;20599;-69
2022/10/31 03:23:46;;;;;;;9.73;8.73;;;-15.10;99.90;;;;;;5089431;28;20171;-70
2022/10/31 03:26:13;;;;;;;11.20;9.37;;;-13.90;99.90;;;;;;5088249;28;20588;-71
2022/10/31 03:28:59;;;;;;;12.07;7.93;;;-14.60;99.90;;;;;;5090417;28;20179;-71
2022/10/31 03:31:31;;;;;;;14.60;9.73;;;-14.70;99.90;;;;;;5091486;28;20187;-71
2022/10/31 03:33:59;;;;;;;11.90;9.77;;;-16.10;99.90;;;;;;5096044;28;20204;-70
2022/10/31 03:36:27;;;;;;;15.23;9.03;;;-12.90;99.90;;;;;;5095812;28;20175;-69
2022/10/31 03:38:54;;;;;;;10.37;9.23;;;-17.50;99.90;;;;;;5095718;28;20186;-70
2022/10/31 03:41:27;;;;;;;12.80;7.80;;;-16.60;99.90;;;;;;5095438;28;20191;-73
2022/10/31 03:43:58;;;;;;;13.33;8.27;;;-15.60;99.90;;;;;;5094930;28;20537;-69
2022/10/31 03:46:24;;;;;;;14.63;9.10;;;-17.00;99.90;;;;;;5091563;28;20174;-69
2022/10/31 03:48:50;;;;;;;10.13;8.47;;;-16.60;99.90;;;;;;5086301;28;20625;-71
2022/10/31 03:51:29;;;;;;;12.00;8.70;;;-17.90;99.90;;;;;;5083140;28;20232;-75
2022/10/31 03:54:04;;;;;;;10.73;9.00;;;-19.40;99.90;;;;;;5084049;28;20182;-76
2022/10/31 03:56:43;;;;;;;14.30;9.13;;;-19.50;99.90;;;;;;5081315;28;20582;-72
2022/10/31 03:59:26;;;;;;;10.93;8.80;;;-18.90;99.90;;;;;;5095883;28;20184;-75
2022/10/31 04:01:59;;;;;;;16.63;8.80;;;-18.20;99.90;;;;;;5088074;28;20602;-78
2022/10/31 04:04:27;;;;;;;10.20;8.27;;;-18.50;99.90;;;;;;5087244;28;20196;-75
2022/10/31 04:06:55;;;;;;;11.37;8.63;;;-18.10;99.90;;;;;;5082730;28;20179;-77
2022/10/31 04:09:22;;;;;;;11.57;7.83;;;-17.70;99.90;;;;;;5084697;28;20205;-77
2022/10/31 04:11:54;;;;;;;12.50;7.40;;;-16.40;99.90;;;;;;5086514;28;20578;-77
2022/10/31 04:14:24;;;;;;;10.17;7.87;;;-17.50;99.90;;;;;;5093090;28;20641;-76
2022/10/31 04:16:50;;;;;;;11.90;7.90;;;-17.00;99.90;;;;;;5095600;28;20562;-76
2022/10/31 04:19:16;;;;;;;11.60;6.57;;;-18.20;99.90;;;;;;5089092;28;20210;-76
2022/10/31 04:21:44;;;;;;;15.63;8.13;;;-15.80;99.90;;;;;;5092752;28;20203;-76
2022/10/31 04:24:10;;;;;;;10.03;8.53;;;-16.00;99.90;;;;;;5080157;28;20590;-78
2022/10/31 04:26:36;;;;;;;9.90;8.60;;;-16.70;99.90;;;;;;5089439;28;20215;-74
2022/10/31 04:29:03;;;;;;;13.17;8.07;;;-16.60;99.90;;;;;;5098444;28;20229;-77
2022/10/31 04:31:28;;;;;;;12.30;8.40;;;-15.40;99.90;;;;;;5097921;28;20189;-80
2022/10/31 04:33:54;;;;;;;10.57;8.50;;;-16.40;99.90;;;;;;5094343;28;20183;-74
2022/10/31 04:36:20;;;;;;;11.50;7.60;;;-18.10;99.90;;;;;;5099496;28;20190;-77
2022/10/31 04:38:46;;;;;;;12.13;9.17;;;-17.60;99.90;;;;;;5087132;28;20184;-77
2022/10/31 04:41:11;;;;;;;10.20;7.80;;;-18.40;99.90;;;;;;5093925;28;20593;-75
2022/10/31 04:43:37;;;;;;;11.83;7.53;;;-18.90;99.90;;;;;;5099263;28;20209;-78
2022/10/31 04:46:04;;;;;;;11.37;8.67;;;-17.40;99.90;;;;;;5097640;28;20178;-73
2022/10/31 04:48:29;;;;;;;13.80;8.60;;;-17.40;99.90;;;;;;5089408;28;20236;-78
2022/10/31 04:51:03;;;;;;;11.33;8.27;;;-18.60;99.90;;;;;;5093129;28;20491;-77
2022/10/31 04:53:29;;;;;;;17.57;8.57;;;-16.90;99.90;;;;;;5088656;28;20171;-78
2022/10/31 04:55:57;;;;;;;11.93;8.73;;;-15.90;99.90;;;;;;5084552;28;20187;-77
2022/10/31 04:58:22;;;;;;;10.93;8.77;;;-12.70;99.90;;;;;;5088183;28;20178;-78
2022/10/31 05:00:52;;;;;;;14.33;8.93;;;-15.20;99.90;;;;;;5089625;28;20182;-75
2022/10/31 05:03:18;;;;;;;9.70;8.77;;;-14.20;99.90;;;;;;5093612;28;20565;-78
2022/10/31 05:05:44;;;;;;;11.87;8.73;;;-13.80;99.90;;;;;;5094675;28;20175;-77
2022/10/31 05:08:10;;;;;;;10.43;8.10;;;-13.60;99.90;;;;;;5097472;28;20175;-75
2022/10/31 05:10:36;;;;;;;12.77;8.10;;;-11.50;99.90;;;;;;5095241;28;20175;-74
2022/10/31 05:13:03;;;;;;;12.03;8.37;;;-12.40;99.90;;;;;;5096688;28;20187;-76
2022/10/31 05:15:29;;;;;;;9.03;8.20;;;-11.10;99.90;;;;;;5092094;28;20181;-77
2022/10/31 05:17:55;;;;;;;11.60;8.13;;;-12.00;99.90;;;;;;5094244;28;20190;-77
2022/10/31 05:20:27;;;;;;;14.70;8.30;;;-12.40;99.90;;;;;;5098712;28;20621;-76
2022/10/31 05:22:55;;;;;;;9.20;8.07;;;-12.70;99.90;;;;;;5098391;28;20258;-76
2022/10/31 05:25:23;;;;;;;11.57;8.43;;;-12.50;99.90;;;;;;5102339;28;20278;-71
2022/10/31 05:27:51;;;;;;;9.10;8.23;;;-11.90;99.90;;;;;;5098467;28;20171;-77
2022/10/31 05:30:21;;;;;;;9.37;8.17;;;-10.30;99.90;;;;;;5098419;28;20179;-72
2022/10/31 05:32:48;;;;;;;16.73;8.13;;;-12.10;99.90;;;;;;5096682;28;20228;-74
2022/10/31 05:35:20;;;;;;;12.67;8.10;;;-12.90;99.90;;;;;;5088731;28;20590;-78
2022/10/31 05:37:46;;;;;;;8.77;7.70;;;-14.30;99.90;;;;;;5084077;28;20174;-74
2022/10/31 05:40:14;;;;;;;12.03;8.73;;;-14.80;99.90;;;;;;5085378;28;20664;-75
2022/10/31 05:42:41;;;;;;;12.47;7.63;;;-14.70;99.90;;;;;;5091988;28;20199;-75
2022/10/31 05:45:09;;;;;;;11.50;7.87;;;-15.90;99.90;;;;;;5091588;28;20235;-75
2022/10/31 05:47:35;;;;;;;9.67;7.17;;;-16.30;99.90;;;;;;5097737;28;20621;-74
2022/10/31 05:50:00;;;;;;;15.20;8.20;;;-16.60;99.90;;;;;;5093984;28;20175;-72
2022/10/31 05:52:26;;;;;;;10.97;8.50;;;-16.40;99.90;;;;;;5086629;28;20191;-75
2022/10/31 05:54:52;;;;;;;18.90;8.77;;;-15.50;99.90;;;;;;5088927;28;20229;-77
2022/10/31 05:57:18;;;;;;;15.43;8.97;;;-15.10;99.90;;;;;;5092865;28;20285;-70
2022/10/31 05:59:43;;;;;;;13.93;9.87;;;-14.90;99.90;;;;;;5086498;28;20232;-70
2022/10/31 06:02:09;;;;;;;16.20;8.37;;;-15.40;99.90;;;;;;5086567;28;20267;-69
2022/10/31 06:04:35;;;;;;;12.07;9.53;;;-18.10;99.90;;;;;;5097916;28;20178;-69
2022/10/31 06:07:01;;;;;;;13.00;8.40;;;-19.50;99.90;;;;;;5093430;28;20266;-69
2022/10/31 06:09:26;;;;;;;12.77;8.00;;;-16.10;99.90;;;;;;5097366;28;20240;-68
2022/10/31 06:11:52;;;;;;;27.37;9.00;;;-19.00;99.90;;;;;;5083035;28;20229;-67
2022/10/31 06:14:18;;;;;;;10.27;7.97;;;-17.10;99.90;;;;;;5086748;28;20187;-68
2022/10/31 06:16:44;;;;;;;10.13;7.70;;;-17.50;99.90;;;;;;5091039;28;20185;-68
2022/10/31 06:19:09;;;;;;;9.77;8.87;;;-16.70;99.90;;;;;;5096435;28;20235;-69
2022/10/31 06:21:35;;;;;;;10.70;8.10;;;-17.50;99.90;;;;;;5097445;28;20210;-69
2022/10/31 06:24:01;;;;;;;10.67;9.17;;;-17.40;99.90;;;;;;5088056;28;20210;-69
2022/10/31 06:26:26;;;;;;;15.50;8.97;;;-18.10;99.90;;;;;;5097281;28;20178;-69
2022/10/31 06:28:52;;;;;;;11.10;8.07;;;-17.20;99.90;;;;;;5085180;28;20284;-70
2022/10/31 06:31:18;;;;;;;12.50;8.23;;;-17.40;99.90;;;;;;5089932;28;20175;-70
2022/10/31 06:33:43;;;;;;;14.83;10.00;;;-17.80;99.90;;;;;;5097177;28;20187;-70
2022/10/31 06:36:10;;;;;;;10.67;8.13;;;-19.10;99.90;;;;;;5097084;28;20174;-69
2022/10/31 06:38:35;;;;;;;20.63;9.63;;;-16.80;99.90;;;;;;5093506;28;20185;-69
2022/10/31 06:41:05;;;;;;;13.03;8.77;;;-16.80;99.90;;;;;;5091932;28;20178;-70
2022/10/31 06:43:31;;;;;;;15.50;9.50;;;-18.10;99.90;;;;;;5097093;28;20179;-68
2022/10/31 06:45:57;;;;;;;11.87;8.97;;;-18.50;99.90;;;;;;5085450;28;20259;-70
2022/10/31 06:48:23;;;;;;;19.63;10.23;;;-18.60;99.90;;;;;;5092227;28;20479;-68
2022/10/31 06:50:49;;;;;;;18.43;9.73;;;-18.40;99.90;;;;;;5091772;28;20207;-68
2022/10/31 06:53:16;;;;;;;20.47;10.20;;;-17.90;99.90;;;;;;5092295;28;20220;-69
2022/10/31 06:55:44;;;;;;;20.40;10.67;;;-18.80;99.90;;;;;;5092971;28;20182;-71
2022/10/31 06:58:12;;;;;;;12.37;8.73;;;-17.90;99.90;;;;;;5089648;28;20265;-71
2022/10/31 07:00:37;;;;;;;16.17;9.73;;;-17.90;99.90;;;;;;5085794;28;20186;-69
2022/10/31 07:03:09;;;;;;;22.97;10.27;;;-17.90;99.90;;;;;;5086733;28;20523;-67
2022/10/31 07:05:35;;;;;;;14.90;11.00;;;-18.90;99.90;;;;;;5093322;28;20179;-68
2022/10/31 07:08:03;;;;;;;27.80;12.00;;;-18.90;99.90;;;;;;5089547;28;20194;-70
2022/10/31 07:10:32;;;;;;;24.30;11.57;;;-20.10;99.90;;;;;;5090042;28;20178;-66
2022/10/31 07:13:04;;;;;;;16.10;11.63;;;-17.90;99.90;;;;;;5087682;28;20195;-69
2022/10/31 07:15:36;;;;;;;17.87;10.10;;;-19.60;99.90;;;;;;5088175;28;20162;-68
2022/10/31 07:18:09;;;;;;;23.50;12.97;;;-17.90;99.90;;;;;;5090319;28;20181;-74
2022/10/31 07:20:35;;;;;;;18.73;11.30;;;-18.00;99.90;;;;;;5089835;28;20176;-69
2022/10/31 07:23:01;;;;;;;20.43;10.80;;;-18.80;99.90;;;;;;5091668;28;20202;-68
2022/10/31 07:25:28;;;;;;;14.30;10.43;;;-18.30;99.90;;;;;;5087332;28;20656;-70
2022/10/31 07:27:55;;;;;;;21.40;11.70;;;-19.00;99.90;;;;;;5110541;27;20189;-70
2022/10/31 07:30:21;;;;;;;15.37;11.47;;;-19.50;99.90;;;;;;5088401;28;20212;-77
2022/10/31 07:32:50;;;;;;;25.90;12.03;;;-17.80;99.90;;;;;;5091841;28;20229;-79
2022/10/31 07:35:27;;;;;;;19.37;12.57;;;-18.60;99.90;;;;;;5090284;28;20219;-79
2022/10/31 07:37:54;;;;;;;18.80;12.77;;;-15.90;99.90;;;;;;5095223;28;20174;-73
2022/10/31 07:40:21;;;;;;;15.77;11.73;;;-17.20;99.90;;;;;;5091142;28;20182;-77
2022/10/31 07:42:50;;;;;;;25.70;12.83;;;-15.80;99.90;;;;;;5090623;28;20694;-72
2022/10/31 07:45:19;;;;;;;18.20;12.73;;;-14.40;99.90;;;;;;5087853;28;20272;-69
2022/10/31 07:47:46;;;;;;;17.73;12.13;;;-16.20;99.90;;;;;;5090582;28;20182;-70
2022/10/31 07:50:14;;;;;;;21.73;11.60;;;-17.20;99.90;;;;;;5085845;28;20185;-72
2022/10/31 07:52:40;;;;;;;24.20;13.33;;;-16.20;99.90;;;;;;5083168;28;20594;-69
2022/10/31 07:55:06;;;;;;;12.53;11.20;;;-14.60;99.90;;;;;;5089335;28;20206;-69
2022/10/31 07:57:32;;;;;;;17.60;11.87;;;-16.90;99.90;;;;;;5084848;28;20192;-73
2022/10/31 07:59:58;;;;;;;20.30;12.73;;;-18.90;99.90;;;;;;5083848;28;20596;-69
2022/10/31 08:02:25;;;;;;;25.53;13.90;;;-19.80;99.90;;;;;;5093209;28;20224;-73
2022/10/31 08:04:51;;;;;;;16.83;11.47;;;-18.20;99.90;;;;;;5082186;28;20169;-70
2022/10/31 08:07:17;;;;;;;19.87;12.77;;;-18.30;99.90;;;;;;5086966;28;20745;-84
2022/10/31 08:09:43;;;;;;;20.13;12.33;;;-16.10;99.90;;;;;;5090424;28;20476;-82
2022/10/31 08:12:09;;;;;;;18.80;13.23;;;-18.10;99.90;;;;;;5099755;28;20187;-80
2022/10/31 08:14:34;;;;;;;15.63;11.93;;;-14.90;99.90;;;;;;5090345;28;20584;-72
2022/10/31 08:17:00;;;;;;;16.40;11.80;;;-18.00;99.90;;;;;;5093003;28;20194;-73
2022/10/31 08:19:26;;;;;;;18.33;12.83;;;-19.80;99.90;;;;;;5090952;28;20198;-71
2022/10/31 08:21:52;;;;;;;21.10;12.17;;;-17.90;99.90;;;;;;5094123;28;20190;-75
2022/10/31 08:24:18;;;;;;;22.77;13.17;;;-13.70;99.90;;;;;;5095296;28;20183;-70
2022/10/31 08:26:44;;;;;;;19.80;13.73;;;-19.00;99.90;;;;;;5086765;28;20178;-67
2022/10/31 08:29:10;;;;;;;17.30;11.97;;;-16.50;99.90;;;;;;5094218;28;20191;-70
2022/10/31 08:31:35;;;;;;;14.87;11.17;;;-17.90;99.90;;;;;;5081046;28;20187;-74
2022/10/31 08:34:02;;;;;;;15.80;9.73;;;-15.50;99.90;;;;;;5093507;28;20221;-69
2022/10/31 08:36:29;;;;;;;14.23;10.67;;;-15.30;99.90;;;;;;5093076;28;20182;-74
2022/10/31 08:38:55;;;;;;;16.23;10.37;;;-14.60;99.90;;;;;;5091087;28;20198;-72
2022/10/31 08:41:21;;;;;;;16.23;11.03;;;-16.80;99.90;;;;;;5084507;28;20262;-68
2022/10/31 08:43:47;;;;;;;18.23;12.37;;;-14.20;99.90;;;;;;5095048;28;20183;-69
2022/10/31 08:46:12;;;;;;;14.50;11.93;;;-16.60;99.90;;;;;;5081667;28;20261;-69
2022/10/31 08:48:38;;;;;;;16.40;11.33;;;-19.50;99.90;;;;;;5080376;28;20636;-69
2022/10/31 08:51:05;;;;;;;11.20;10.20;;;-21.20;99.90;;;;;;5090806;28;20191;-74
2022/10/31 08:53:31;;;;;;;20.97;11.70;;;-21.00;99.90;;;;;;5090918;28;20178;-68
2022/10/31 08:55:56;;;;;;;19.47;11.17;;;-20.20;99.90;;;;;;5095077;28;20214;-68
2022/10/31 08:58:24;;;;;;;19.17;12.47;;;-18.20;99.90;;;;;;5089423;28;20212;-70
2022/10/31 09:00:53;;;;;;;21.87;11.50;;;-21.40;99.90;;;;;;5090251;28;20558;-68
2022/10/31 09:03:24;;;;;;;17.40;10.50;;;-22.20;99.90;;;;;;5092598;28;20234;-72
2022/10/31 09:05:54;;;;;;;13.23;8.53;;;-21.20;99.90;;;;;;5093238;28;20182;-68
2022/10/31 09:08:19;;;;;;;12.07;9.17;;;-21.70;99.90;;;;;;5088869;28;20531;-70
2022/10/31 09:10:45;;;;;;;13.83;9.33;;;-20.00;99.90;;;;;;5096805;28;20183;-70
2022/10/31 09:13:19;;;;;;;11.13;8.47;;;-23.90;99.90;;;;;;5097519;28;20175;-68
2022/10/31 09:15:47;;;;;;;27.40;9.87;;;-20.70;99.90;;;;;;5098642;28;20208;-73
2022/10/31 09:18:14;;;;;;;13.00;9.83;;;-20.20;99.90;;;;;;5098503;28;20261;-68
2022/10/31 09:20:41;;;;;;;11.40;8.97;;;-18.40;99.90;;;;;;5098448;28;20182;-69
2022/10/31 09:23:10;;;;;;;14.03;8.57;;;-18.20;99.90;;;;;;5097237;28;20218;-70
2022/10/31 09:25:36;;;;;;;14.83;8.77;;;-22.50;99.90;;;;;;5091729;28;20189;-74
2022/10/31 09:28:04;;;;;;;10.13;8.93;;;-19.10;99.90;;;;;;5088169;28;20179;-72
2022/10/31 09:30:32;;;;;;;13.03;10.10;;;-20.30;99.90;;;;;;5085052;28;20190;-72
2022/10/31 09:33:00;;;;;;;13.77;8.43;;;-22.90;99.90;;;;;;5090808;28;20403;-72
2022/10/31 09:35:27;;;;;;;12.20;8.20;;;-21.50;99.90;;;;;;5084647;28;20481;-73
2022/10/31 09:38:08;;;;;;;11.43;8.70;;;-19.60;99.90;;;;;;5098407;28;20200;-74
2022/10/31 09:40:40;;;;;;;16.27;10.30;;;-17.90;99.90;;;;;;5090955;28;21035;-68
2022/10/31 09:43:38;;;;;;;16.27;9.87;;;-17.00;99.90;;;;;;5088051;28;20221;-70
2022/10/31 09:46:26;;;;;;;15.90;8.23;;;-18.60;99.90;;;;;;5089254;28;20180;-70
2022/10/31 09:49:29;;;;;;;10.93;9.13;;;-17.30;99.90;;;;;;5085740;28;20201;-72
2022/10/31 09:52:08;;;;;;;23.03;8.00;;;-16.10;99.90;;;;;;5095521;28;20181;-69
2022/10/31 09:54:57;;;;;;;14.10;8.70;;;-16.70;99.90;;;;;;5090144;28;20582;-70
2022/10/31 09:57:29;;;;;;;14.17;9.53;;;-21.60;99.90;;;;;;5090966;28;20186;-70
2022/10/31 09:59:56;;;;;;;14.00;12.50;;;-19.80;99.90;;;;;;5084506;28;20174;-70
2022/10/31 10:02:34;;;;;;;18.53;10.80;;;-21.60;99.90;;;;;;5093458;28;20218;-73
2022/10/31 10:05:04;;;;;;;15.33;10.13;;;-26.10;99.90;;;;;;5097084;28;20181;-71
2022/10/31 10:07:33;;;;;;;11.33;9.30;;;-28.50;99.90;;;;;;5092803;28;20179;-74
2022/10/31 10:10:13;;;;;;;16.80;9.97;;;-31.50;99.90;;;;;;5092328;28;20461;-76
2022/10/31 10:12:39;;;;;;;12.80;8.80;;;-34.20;99.90;;;;;;5090022;28;20179;-70
2022/10/31 10:15:08;;;;;;;8.70;7.23;;;-37.80;99.90;;;;;;5091774;28;20266;-70
2022/10/31 10:18:04;;;;;;;14.87;7.70;;;-40.00;99.90;;;;;;5083974;28;20190;-68
2022/10/31 10:20:44;;;;;;;14.13;8.00;;;-40.00;99.90;;;;;;5086825;28;20279;-74
2022/10/31 10:23:19;;;;;;;13.13;7.97;;;-40.00;99.90;;;;;;5088659;28;20206;-72
2022/10/31 10:25:48;;;;;;;13.03;7.33;;;-40.00;99.90;;;;;;5085432;28;20174;-73
2022/10/31 10:28:43;;;;;;;22.30;9.23;;;-40.00;99.90;;;;;;5092955;28;20179;-70
2022/10/31 10:31:13;;;;;;;8.90;7.20;;;-40.00;99.90;;;;;;5097047;28;20186;-76
2022/10/31 10:34:00;;;;;;;17.40;9.13;;;-40.00;99.90;;;;;;5097207;28;20318;-72
2022/10/31 10:36:39;;;;;;;8.30;7.23;;;-40.00;99.90;;;;;;5091202;28;20239;-78
2022/10/31 10:39:14;;;;;;;15.33;9.40;;;-40.00;99.90;;;;;;5096177;28;20182;-78
2022/10/31 10:41:44;;;;;;;12.83;7.63;;;-40.00;99.90;;;;;;5096598;28;20204;-77
2022/10/31 10:44:10;;;;;;;9.20;7.40;;;-40.00;99.90;;;;;;5081662;28;20179;-78
2022/10/31 10:49:52;;;;;;;10.73;8.20;;;-40.00;99.90;;;;;;5088062;28;20181;-66
2022/10/31 10:52:36;;;;;;;9.60;7.77;;;-40.00;99.90;;;;;;5092077;28;20183;-70
2022/10/31 10:55:32;;;;;;;14.17;8.53;;;-40.00;99.90;;;;;;5094139;28;20589;-70
2022/10/31 10:58:04;;;;;;;8.90;7.23;;;-40.00;99.90;;;;;;5086877;28;20210;-69
2022/10/31 11:00:31;;;;;;;9.73;7.23;;;-40.00;99.90;;;;;;5092670;28;20334;-69
2022/10/31 11:02:57;;;;;;;9.47;8.03;;;-40.00;99.90;;;;;;5096656;28;20263;-69
2022/10/31 11:05:48;;;;;;;9.17;7.27;;;-40.00;99.90;;;;;;5096298;28;20210;-68
2022/10/31 11:08:25;;;;;;;8.90;8.00;;;-40.00;99.90;;;;;;5094885;28;20211;-70
2022/10/31 11:11:16;;;;;;;14.77;8.77;;;-40.00;99.90;;;;;;5087926;28;20250;-70
2022/10/31 11:13:43;;;;;;;10.83;8.17;;;-40.00;99.90;;;;;;5089305;28;20178;-70
2022/10/31 11:16:13;;;;;;;11.33;7.80;;;-40.00;99.90;;;;;;5091556;28;20612;-70
2022/10/31 11:18:46;;;;;;;9.90;7.80;;;-40.00;99.90;;;;;;5087504;28;20171;-70
2022/10/31 11:21:26;;;;;;;18.57;8.03;;;-40.00;99.90;;;;;;5090082;28;20246;-68
2022/10/31 11:24:10;;;;;;;9.30;7.57;;;-40.00;99.90;;;;;;5091763;28;20183;-70
2022/10/31 11:26:37;;;;;;;13.57;7.80;;;-40.00;99.90;;;;;;5081665;28;20181;-70
2022/10/31 11:29:05;;;;;;;11.90;6.97;;;-40.00;99.90;;;;;;5083754;28;20194;-74
2022/10/31 11:31:34;;;;;;;11.10;6.43;;;-40.00;99.90;;;;;;5090395;28;20191;-69
2022/10/31 11:34:02;;;;;;;11.47;7.10;;;-40.00;99.90;;;;;;5090799;28;20578;-69
2022/10/31 11:36:32;;;;;;;14.53;7.13;;;-40.00;99.90;;;;;;5090555;28;20629;-68
2022/10/31 11:39:01;;;;;;;16.17;6.83;;;-40.00;99.90;;;;;;5095245;28;20186;-71
2022/10/31 11:41:36;;;;;;;12.33;6.53;;;-40.00;99.90;;;;;;5087711;28;20183;-69
2022/10/31 11:44:10;;;;;;;9.60;7.63;;;-40.00;99.90;;;;;;5091994;28;20186;-69
2022/10/31 11:46:44;;;;;;;11.03;8.00;;;-40.00;99.90;;;;;;5096032;28;20257;-72
2022/10/31 11:49:22;;;;;;;9.77;6.13;;;-40.00;99.90;;;;;;5090920;28;20484;-71
2022/10/31 11:51:52;;;;;;;11.87;6.73;;;-40.00;99.90;;;;;;5087154;28;20214;-72
2022/10/31 11:54:29;;;;;;;12.93;7.40;;;-40.00;99.90;;;;;;5088741;28;20655;-69
2022/10/31 11:56:55;;;;;;;12.57;6.60;;;-40.00;99.90;;;;;;5095149;28;20269;-69
2022/10/31 11:59:29;;;;;;;8.37;6.20;;;-40.00;99.90;;;;;;5094180;28;20174;-71
2022/10/31 12:01:57;;;;;;;16.80;6.80;;;-40.00;99.90;;;;;;5085500;28;20606;-74
2022/10/31 12:04:45;;;;;;;10.17;6.17;;;-40.00;99.90;;;;;;5085612;28;20179;-75
2022/10/31 12:07:11;;;;;;;13.03;5.97;;;-40.00;99.90;;;;;;5087179;28;20182;-70
2022/10/31 12:09:38;;;;;;;8.13;5.50;;;-40.00;99.90;;;;;;5087531;28;20192;-69
2022/10/31 12:12:43;;;;;;;11.43;5.90;;;-40.00;99.90;;;;;;5090106;28;20590;-75
2022/10/31 12:15:29;;;;;;;11.47;6.40;;;-40.00;99.90;;;;;;5088811;28;20203;-71
2022/10/31 12:18:19;;;;;;;7.77;4.90;;;-40.00;99.90;;;;;;5084151;28;20181;-70
2022/10/31 12:20:48;;;;;;;6.40;4.60;;;-40.00;99.90;;;;;;5086735;28;20214;-73
2022/10/31 12:23:23;;;;;;;11.53;6.53;;;-40.00;98.30;;;;;;5091733;28;20669;-72
2022/10/31 12:26:04;;;;;;;8.07;4.57;;;-40.00;97.10;;;;;;5091173;28;20197;-71
2022/10/31 12:28:39;;;;;;;8.17;5.43;;;-40.00;93.80;;;;;;5078044;28;20270;-71
2022/10/31 12:31:28;;;;;;;18.17;4.63;;;-40.00;92.40;;;;;;5094167;28;20612;-72
2022/10/31 12:34:34;;;;;;;8.03;4.43;;;-40.00;93.10;;;;;;5091628;28;20183;-70
2022/10/31 12:37:12;;;;;;;9.20;4.80;;;-40.00;91.70;;;;;;5087759;28;20182;-70
2022/10/31 12:39:56;;;;;;;9.50;5.53;;;-40.00;92.20;;;;;;5087895;28;20594;-69
2022/10/31 12:42:40;;;;;;;8.37;4.60;;;-40.00;90.90;;;;;;5089887;28;20224;-69
2022/10/31 12:45:25;;;;;;;8.23;4.83;;;-40.00;88.50;;;;;;5091608;28;20178;-72
2022/10/31 12:48:13;;;;;;;7.20;4.80;;;-40.00;91.60;;;;;;5097135;28;20178;-69